createdAt,value
2017-07-01T00:00:40.368Z,16.81
2017-07-01T00:01:21.258Z,16.76
2017-07-01T00:02:02.185Z,16.78
2017-07-01T00:02:43.069Z,16.65
2017-07-01T00:03:23.985Z,16.71
2017-07-01T00:04:04.881Z,16.64
2017-07-01T00:04:45.774Z,16.66
2017-07-01T00:05:26.665Z,16.69
2017-07-01T00:06:07.542Z,16.78
2017-07-01T00:06:48.429Z,16.79
2017-07-01T00:07:29.334Z,16.76
2017-07-01T00:08:10.214Z,16.72
2017-07-01T00:08:51.104Z,16.79
2017-07-01T00:09:31.999Z,16.76
2017-07-01T00:10:12.891Z,16.78
2017-07-01T00:10:53.772Z,16.76
2017-07-01T00:11:34.654Z,16.76
2017-07-01T00:12:15.541Z,16.78
2017-07-01T00:12:56.418Z,16.69
2017-07-01T00:13:37.316Z,16.72
2017-07-01T00:14:18.210Z,16.66
2017-07-01T00:14:59.095Z,16.66
2017-07-01T00:15:39.979Z,16.71
2017-07-01T00:16:20.867Z,16.64
2017-07-01T00:17:01.753Z,16.76
2017-07-01T00:17:42.665Z,16.64
2017-07-01T00:18:23.564Z,16.69
2017-07-01T00:19:04.447Z,16.64
2017-07-01T00:19:45.360Z,16.71
2017-07-01T00:20:26.229Z,16.64
2017-07-01T00:21:07.128Z,16.64
2017-07-01T00:21:48.045Z,16.65
2017-07-01T00:22:28.930Z,16.68
2017-07-01T00:23:09.829Z,16.65
2017-07-01T00:23:50.715Z,16.69
2017-07-01T00:24:31.596Z,16.69
2017-07-01T00:25:12.485Z,16.65
2017-07-01T00:25:53.380Z,16.64
2017-07-01T00:26:34.266Z,16.68
2017-07-01T00:27:15.150Z,16.57
2017-07-01T00:27:56.055Z,16.65
2017-07-01T00:28:36.951Z,16.6
2017-07-01T00:29:17.852Z,16.66
2017-07-01T00:29:58.742Z,16.65
2017-07-01T00:30:39.617Z,16.53
2017-07-01T00:31:20.530Z,16.64
2017-07-01T00:32:01.429Z,16.53
2017-07-01T00:32:42.309Z,16.61
2017-07-01T00:33:23.190Z,16.53
2017-07-01T00:34:04.082Z,16.53
2017-07-01T00:34:44.971Z,16.53
2017-07-01T00:35:25.866Z,16.5
2017-07-01T00:36:06.756Z,16.5
2017-07-01T00:36:47.660Z,16.54
2017-07-01T00:37:28.540Z,16.54
2017-07-01T00:38:09.423Z,16.39
2017-07-01T00:38:50.306Z,16.49
2017-07-01T00:39:31.201Z,16.56
2017-07-01T00:40:12.086Z,16.36
2017-07-01T00:40:52.979Z,16.46
2017-07-01T00:41:33.853Z,16.43
2017-07-01T00:42:14.735Z,16.41
2017-07-01T00:42:55.626Z,16.54
2017-07-01T00:43:36.525Z,16.43
2017-07-01T00:44:17.401Z,16.41
2017-07-01T00:44:58.306Z,16.49
2017-07-01T00:45:39.186Z,16.49
2017-07-01T00:46:20.098Z,16.39
2017-07-01T00:47:00.995Z,16.42
2017-07-01T00:47:41.877Z,16.43
2017-07-01T00:48:22.794Z,16.49
2017-07-01T00:49:03.687Z,16.47
2017-07-01T00:49:44.579Z,16.5
2017-07-01T00:50:25.469Z,16.49
2017-07-01T00:51:06.362Z,16.5
2017-07-01T00:51:47.258Z,16.42
2017-07-01T00:52:28.148Z,16.36
2017-07-01T00:53:09.040Z,16.35
2017-07-01T00:53:49.935Z,16.35
2017-07-01T00:54:30.820Z,16.32
2017-07-01T00:55:11.701Z,16.39
2017-07-01T00:55:52.586Z,16.35
2017-07-01T00:56:33.476Z,16.32
2017-07-01T00:57:14.379Z,16.35
2017-07-01T00:57:55.260Z,16.31
2017-07-01T00:58:36.169Z,16.42
2017-07-01T00:59:17.068Z,16.33
2017-07-01T00:59:57.960Z,16.35
2017-07-01T01:00:38.855Z,16.47
2017-07-01T01:01:19.740Z,16.49
2017-07-01T01:02:00.631Z,16.5
2017-07-01T01:02:41.522Z,16.46
2017-07-01T01:03:22.426Z,16.38
2017-07-01T01:04:03.322Z,16.47
2017-07-01T01:04:44.218Z,16.5
2017-07-01T01:05:25.104Z,16.43
2017-07-01T01:06:05.991Z,16.41
2017-07-01T01:06:46.876Z,16.42
2017-07-01T01:07:27.778Z,16.46
2017-07-01T01:08:08.666Z,16.47
2017-07-01T01:08:49.558Z,16.5
2017-07-01T01:09:30.449Z,16.38
2017-07-01T01:10:11.335Z,16.39
2017-07-01T01:10:52.224Z,16.46
2017-07-01T01:11:33.134Z,16.5
2017-07-01T01:12:13.995Z,16.46
2017-07-01T01:12:54.897Z,16.43
2017-07-01T01:13:35.784Z,16.47
2017-07-01T01:14:16.664Z,16.39
2017-07-01T01:14:57.551Z,16.31
2017-07-01T01:15:38.430Z,16.35
2017-07-01T01:16:19.405Z,16.38
2017-07-01T01:17:00.299Z,16.36
2017-07-01T01:17:41.193Z,16.32
2017-07-01T01:18:22.074Z,16.38
2017-07-01T01:19:02.961Z,16.32
2017-07-01T01:19:43.841Z,16.28
2017-07-01T01:20:24.730Z,16.31
2017-07-01T01:21:05.631Z,16.26
2017-07-01T01:21:46.514Z,16.38
2017-07-01T01:22:27.388Z,16.41
2017-07-01T01:23:08.273Z,16.38
2017-07-01T01:23:49.170Z,16.46
2017-07-01T01:24:30.051Z,16.41
2017-07-01T01:25:10.954Z,16.49
2017-07-01T01:25:51.840Z,16.53
2017-07-01T01:26:32.721Z,16.51
2017-07-01T01:27:13.606Z,16.5
2017-07-01T01:27:54.515Z,16.56
2017-07-01T01:28:35.394Z,16.53
2017-07-01T01:29:16.309Z,16.5
2017-07-01T01:29:57.194Z,16.53
2017-07-01T01:30:38.076Z,16.6
2017-07-01T01:31:18.933Z,16.65
2017-07-01T01:31:59.814Z,16.68
2017-07-01T01:32:40.711Z,16.68
2017-07-01T01:33:21.630Z,16.68
2017-07-01T01:34:02.487Z,16.66
2017-07-01T01:34:43.376Z,16.69
2017-07-01T01:35:24.284Z,16.69
2017-07-01T01:36:05.188Z,16.71
2017-07-01T01:36:46.082Z,16.64
2017-07-01T01:37:26.989Z,16.57
2017-07-01T01:38:07.879Z,16.53
2017-07-01T01:38:48.811Z,16.49
2017-07-01T01:39:29.692Z,16.51
2017-07-01T01:40:10.590Z,16.46
2017-07-01T01:40:51.474Z,16.49
2017-07-01T01:41:32.369Z,16.42
2017-07-01T01:42:13.263Z,16.58
2017-07-01T01:42:54.153Z,16.53
2017-07-01T01:43:35.033Z,16.56
2017-07-01T01:44:15.918Z,16.68
2017-07-01T01:44:56.803Z,16.51
2017-07-01T01:45:37.681Z,16.64
2017-07-01T01:46:18.568Z,16.6
2017-07-01T01:46:59.464Z,16.68
2017-07-01T01:47:40.337Z,16.75
2017-07-01T01:48:21.244Z,16.6
2017-07-01T01:49:02.138Z,16.76
2017-07-01T01:49:43.012Z,16.66
2017-07-01T01:50:25.571Z,16.71
2017-07-01T01:51:06.492Z,16.65
2017-07-01T01:51:47.379Z,16.75
2017-07-01T01:52:28.290Z,16.76
2017-07-01T01:53:09.176Z,16.78
2017-07-01T01:53:50.080Z,16.76
2017-07-01T01:54:31.012Z,16.83
2017-07-01T01:55:11.906Z,16.84
2017-07-01T01:55:52.801Z,16.72
2017-07-01T01:56:35.350Z,16.86
2017-07-01T01:57:16.237Z,16.81
2017-07-01T01:57:57.116Z,16.84
2017-07-01T01:58:38.020Z,16.72
2017-07-01T01:59:18.919Z,16.61
2017-07-01T01:59:59.819Z,16.79
2017-07-01T02:00:40.708Z,16.75
2017-07-01T02:01:21.589Z,16.83
2017-07-01T02:03:16.235Z,16.87
2017-07-01T02:03:57.130Z,16.87
2017-07-01T02:04:38.007Z,16.9
2017-07-01T02:05:18.901Z,16.87
2017-07-01T02:05:59.787Z,16.86
2017-07-01T02:06:40.669Z,16.79
2017-07-01T02:07:21.538Z,16.83
2017-07-01T02:08:02.433Z,16.79
2017-07-01T02:08:43.324Z,16.9
2017-07-01T02:09:24.216Z,16.79
2017-07-01T02:10:05.104Z,16.79
2017-07-01T02:10:45.984Z,16.86
2017-07-01T02:11:26.869Z,16.81
2017-07-01T02:12:07.752Z,16.75
2017-07-01T02:12:48.641Z,16.81
2017-07-01T02:13:29.527Z,16.81
2017-07-01T02:14:10.414Z,16.75
2017-07-01T02:14:51.290Z,16.72
2017-07-01T02:15:32.190Z,16.76
2017-07-01T02:16:13.085Z,16.75
2017-07-01T02:16:53.970Z,16.74
2017-07-01T02:17:34.847Z,16.65
2017-07-01T02:18:15.737Z,16.69
2017-07-01T02:18:56.626Z,16.78
2017-07-01T02:19:37.505Z,16.76
2017-07-01T02:20:18.387Z,16.68
2017-07-01T02:20:59.286Z,16.76
2017-07-01T02:21:40.169Z,16.76
2017-07-01T02:22:21.076Z,16.75
2017-07-01T02:23:01.964Z,16.72
2017-07-01T02:23:42.853Z,16.65
2017-07-01T02:24:23.743Z,16.78
2017-07-01T02:25:04.644Z,16.76
2017-07-01T02:25:45.527Z,16.64
2017-07-01T02:26:26.421Z,16.76
2017-07-01T02:27:07.313Z,16.6
2017-07-01T02:27:48.208Z,16.69
2017-07-01T02:28:29.102Z,16.69
2017-07-01T02:29:09.987Z,16.65
2017-07-01T02:29:50.879Z,16.64
2017-07-01T02:30:31.766Z,16.69
2017-07-01T02:31:12.650Z,16.66
2017-07-01T02:31:53.539Z,16.68
2017-07-01T02:32:35.331Z,16.53
2017-07-01T02:33:16.262Z,16.47
2017-07-01T02:33:57.153Z,16.43
2017-07-01T02:34:38.038Z,16.51
2017-07-01T02:35:18.926Z,16.39
2017-07-01T02:35:59.814Z,16.39
2017-07-01T02:36:40.696Z,16.47
2017-07-01T02:37:21.581Z,16.47
2017-07-01T02:38:02.468Z,16.38
2017-07-01T02:38:43.370Z,16.47
2017-07-01T02:39:24.268Z,16.49
2017-07-01T02:40:05.170Z,16.51
2017-07-01T02:40:46.048Z,16.65
2017-07-01T02:41:26.941Z,16.72
2017-07-01T02:42:07.828Z,16.61
2017-07-01T02:42:48.715Z,16.74
2017-07-01T02:43:29.597Z,16.65
2017-07-01T02:44:10.478Z,16.68
2017-07-01T02:44:51.367Z,16.65
2017-07-01T02:45:32.319Z,16.66
2017-07-01T02:46:13.204Z,16.68
2017-07-01T02:46:54.082Z,16.76
2017-07-01T02:47:34.973Z,16.65
2017-07-01T02:48:15.856Z,16.68
2017-07-01T02:48:56.737Z,16.68
2017-07-01T02:49:37.621Z,16.68
2017-07-01T02:50:18.508Z,16.66
2017-07-01T02:50:59.391Z,16.69
2017-07-01T02:51:40.291Z,16.71
2017-07-01T02:52:21.154Z,16.64
2017-07-01T02:53:02.037Z,16.64
2017-07-01T02:53:42.953Z,16.64
2017-07-01T02:54:23.829Z,16.68
2017-07-01T02:55:04.717Z,16.66
2017-07-01T02:56:38.043Z,16.58
2017-07-01T02:57:18.921Z,16.64
2017-07-01T02:57:59.815Z,16.66
2017-07-01T02:58:40.710Z,16.66
2017-07-01T02:59:21.589Z,16.81
2017-07-01T03:00:02.470Z,16.65
2017-07-01T03:00:43.359Z,16.72
2017-07-01T03:01:24.238Z,16.75
2017-07-01T03:02:05.148Z,16.74
2017-07-01T03:02:46.031Z,16.53
2017-07-01T03:03:26.924Z,16.54
2017-07-01T03:04:07.813Z,16.6
2017-07-01T03:04:48.688Z,16.54
2017-07-01T03:05:29.589Z,16.6
2017-07-01T03:06:10.469Z,16.65
2017-07-01T03:06:51.346Z,16.66
2017-07-01T03:07:32.239Z,16.74
2017-07-01T03:08:13.122Z,16.5
2017-07-01T03:08:54.012Z,16.42
2017-07-01T03:09:34.897Z,16.54
2017-07-01T03:10:15.788Z,16.42
2017-07-01T03:10:56.668Z,16.53
2017-07-01T03:11:37.567Z,16.57
2017-07-01T03:12:18.457Z,16.66
2017-07-01T03:12:59.344Z,16.71
2017-07-01T03:13:40.237Z,16.68
2017-07-01T03:14:21.125Z,16.81
2017-07-01T03:15:02.011Z,16.76
2017-07-01T03:15:42.909Z,16.81
2017-07-01T03:16:23.806Z,16.79
2017-07-01T03:17:04.686Z,16.86
2017-07-01T03:17:45.567Z,16.83
2017-07-01T03:18:26.456Z,16.79
2017-07-01T03:19:07.352Z,16.83
2017-07-01T03:19:48.242Z,16.86
2017-07-01T03:20:29.138Z,16.87
2017-07-01T03:21:10.058Z,16.81
2017-07-01T03:21:50.938Z,16.89
2017-07-01T03:22:31.822Z,16.79
2017-07-01T03:23:12.708Z,16.9
2017-07-01T03:23:53.592Z,16.93
2017-07-01T03:24:34.481Z,16.87
2017-07-01T03:25:15.370Z,16.87
2017-07-01T03:25:56.267Z,16.89
2017-07-01T03:26:37.149Z,16.91
2017-07-01T03:27:18.033Z,16.89
2017-07-01T03:27:58.935Z,16.91
2017-07-01T03:28:39.823Z,16.89
2017-07-01T03:29:20.708Z,16.89
2017-07-01T03:30:01.610Z,16.81
2017-07-01T03:30:42.493Z,16.71
2017-07-01T03:31:23.384Z,16.66
2017-07-01T03:32:04.293Z,16.72
2017-07-01T03:32:45.180Z,16.81
2017-07-01T03:33:26.078Z,16.78
2017-07-01T03:34:06.967Z,16.76
2017-07-01T03:34:47.857Z,16.71
2017-07-01T03:35:28.755Z,16.75
2017-07-01T03:36:09.646Z,16.81
2017-07-01T03:36:50.535Z,16.83
2017-07-01T03:37:31.449Z,16.79
2017-07-01T03:38:12.320Z,16.78
2017-07-01T03:38:53.209Z,16.66
2017-07-01T03:39:34.102Z,16.81
2017-07-01T03:40:14.985Z,16.66
2017-07-01T03:40:55.878Z,16.64
2017-07-01T03:41:36.797Z,16.64
2017-07-01T03:42:17.674Z,16.68
2017-07-01T03:42:58.558Z,16.64
2017-07-01T03:43:39.451Z,16.66
2017-07-01T03:44:20.331Z,16.66
2017-07-01T03:45:01.215Z,16.43
2017-07-01T03:45:42.106Z,16.43
2017-07-01T03:46:23.093Z,16.39
2017-07-01T03:47:04.021Z,16.43
2017-07-01T03:47:45.783Z,16.5
2017-07-01T03:48:26.671Z,16.43
2017-07-01T03:49:07.560Z,16.53
2017-07-01T03:49:48.457Z,16.54
2017-07-01T03:50:29.353Z,16.5
2017-07-01T03:51:10.248Z,16.56
2017-07-01T03:51:51.148Z,16.56
2017-07-01T03:52:32.097Z,16.56
2017-07-01T03:53:12.980Z,16.64
2017-07-01T03:53:53.930Z,16.68
2017-07-01T03:54:34.834Z,16.69
2017-07-01T03:55:15.720Z,16.66
2017-07-01T03:55:56.614Z,16.71
2017-07-01T03:56:37.504Z,16.69
2017-07-01T03:57:18.386Z,16.66
2017-07-01T03:57:59.307Z,16.68
2017-07-01T03:58:40.206Z,16.66
2017-07-01T03:59:21.100Z,16.6
2017-07-01T04:00:01.988Z,16.65
2017-07-01T04:00:42.876Z,16.66
2017-07-01T04:01:23.772Z,16.6
2017-07-01T04:02:04.654Z,16.72
2017-07-01T04:02:45.543Z,16.66
2017-07-01T04:03:26.444Z,16.53
2017-07-01T04:04:07.329Z,16.57
2017-07-01T04:04:48.201Z,16.66
2017-07-01T04:05:29.105Z,16.49
2017-07-01T04:06:11.877Z,16.53
2017-07-01T04:06:52.761Z,16.51
2017-07-01T04:07:33.645Z,16.51
2017-07-01T04:08:14.534Z,16.68
2017-07-01T04:08:55.410Z,16.66
2017-07-01T04:09:36.303Z,16.79
2017-07-01T04:10:17.183Z,16.76
2017-07-01T04:10:58.093Z,16.83
2017-07-01T04:11:38.977Z,16.78
2017-07-01T04:12:19.879Z,16.76
2017-07-01T04:13:00.778Z,16.5
2017-07-01T04:13:41.660Z,16.58
2017-07-01T04:14:22.537Z,16.61
2017-07-01T04:15:03.419Z,16.5
2017-07-01T04:15:44.304Z,16.64
2017-07-01T04:16:25.217Z,16.57
2017-07-01T04:17:06.074Z,16.57
2017-07-01T04:17:46.980Z,16.53
2017-07-01T04:18:31.366Z,16.58
2017-07-01T04:19:12.256Z,16.65
2017-07-01T04:19:53.143Z,16.78
2017-07-01T04:20:34.041Z,16.71
2017-07-01T04:21:14.921Z,16.71
2017-07-01T04:21:57.597Z,16.74
2017-07-01T04:22:38.488Z,16.81
2017-07-01T04:23:19.377Z,16.83
2017-07-01T04:24:00.264Z,16.76
2017-07-01T04:24:41.151Z,16.84
2017-07-01T04:25:22.079Z,16.78
2017-07-01T04:26:03.048Z,16.83
2017-07-01T04:26:43.940Z,16.79
2017-07-01T04:27:24.833Z,16.89
2017-07-01T04:28:05.736Z,16.84
2017-07-01T04:28:46.622Z,16.87
2017-07-01T04:29:27.508Z,16.83
2017-07-01T04:30:08.404Z,16.91
2017-07-01T04:30:49.281Z,16.89
2017-07-01T04:31:31.877Z,16.89
2017-07-01T04:32:14.374Z,16.94
2017-07-01T04:32:55.262Z,17.06
2017-07-01T04:33:36.140Z,17.06
2017-07-01T04:34:18.886Z,17.05
2017-07-01T04:34:59.765Z,16.96
2017-07-01T04:35:42.598Z,16.96
2017-07-01T04:36:26.099Z,17.06
2017-07-01T04:37:11.871Z,16.9
2017-07-01T04:37:54.616Z,16.96
2017-07-01T04:38:39.600Z,16.94
2017-07-01T04:39:20.479Z,16.97
2017-07-01T04:40:01.369Z,17.04
2017-07-01T04:40:45.875Z,17.12
2017-07-01T04:41:30.376Z,16.99
2017-07-01T04:42:13.108Z,17.05
2017-07-01T04:42:59.393Z,16.86
2017-07-01T04:43:42.110Z,16.79
2017-07-01T04:44:23.010Z,16.89
2017-07-01T04:45:03.881Z,16.91
2017-07-01T04:45:44.766Z,16.64
2017-07-01T04:46:25.649Z,16.64
2017-07-01T04:47:06.543Z,16.56
2017-07-01T04:47:47.445Z,16.53
2017-07-01T04:48:28.373Z,16.6
2017-07-01T04:49:09.261Z,16.72
2017-07-01T04:49:51.877Z,16.66
2017-07-01T04:50:36.112Z,16.61
2017-07-01T04:51:17.002Z,16.72
2017-07-01T04:51:59.627Z,16.68
2017-07-01T04:52:40.512Z,16.72
2017-07-01T04:53:21.393Z,16.81
2017-07-01T04:54:05.612Z,16.83
2017-07-01T04:54:49.377Z,16.76
2017-07-01T04:55:30.270Z,16.84
2017-07-01T04:56:12.901Z,16.78
2017-07-01T04:56:56.631Z,16.68
2017-07-01T04:57:46.907Z,16.78
2017-07-01T04:58:27.773Z,16.81
2017-07-01T04:59:10.606Z,16.87
2017-07-01T04:59:54.893Z,16.91
2017-07-01T05:00:37.381Z,16.99
2017-07-01T05:01:20.121Z,17.14
2017-07-01T05:02:01.006Z,17.06
2017-07-01T05:02:43.623Z,16.99
2017-07-01T05:03:24.514Z,17.05
2017-07-01T05:04:05.402Z,17.02
2017-07-01T05:04:48.250Z,17.01
2017-07-01T05:05:29.133Z,17.02
2017-07-01T05:06:11.627Z,17.06
2017-07-01T05:06:52.513Z,17.04
2017-07-01T05:07:36.896Z,17.05
2017-07-01T05:08:17.785Z,16.9
2017-07-01T05:08:58.665Z,16.96
2017-07-01T05:09:42.893Z,17.06
2017-07-01T05:10:27.399Z,17.06
2017-07-01T05:11:08.286Z,17.11
2017-07-01T05:11:49.161Z,17.02
2017-07-01T05:12:30.048Z,17.02
2017-07-01T05:13:10.940Z,17.06
2017-07-01T05:13:52.825Z,17.12
2017-07-01T05:14:35.634Z,17.08
2017-07-01T05:15:16.521Z,17.05
2017-07-01T05:16:00.039Z,17.05
2017-07-01T05:16:40.927Z,16.93
2017-07-01T05:17:30.384Z,17.08
2017-07-01T05:18:11.285Z,16.99
2017-07-01T05:18:52.182Z,16.87
2017-07-01T05:19:34.909Z,16.97
2017-07-01T05:20:15.813Z,16.86
2017-07-01T05:20:58.394Z,16.96
2017-07-01T05:21:39.278Z,17.06
2017-07-01T05:22:20.182Z,17.09
2017-07-01T05:23:01.070Z,17.09
2017-07-01T05:23:41.962Z,17.19
2017-07-01T05:24:22.849Z,17.23
2017-07-01T05:25:03.744Z,17.3
2017-07-01T05:25:44.638Z,17.15
2017-07-01T05:26:25.530Z,17.04
2017-07-01T05:27:08.142Z,16.9
2017-07-01T05:27:49.019Z,16.83
2017-07-01T05:28:29.905Z,17.05
2017-07-01T05:29:10.797Z,17.05
2017-07-01T05:29:51.716Z,17.12
2017-07-01T05:30:32.598Z,17.02
2017-07-01T05:31:13.592Z,16.81
2017-07-01T05:31:54.499Z,17.02
2017-07-01T05:32:35.379Z,16.93
2017-07-01T05:33:16.290Z,16.93
2017-07-01T05:33:57.193Z,17.04
2017-07-01T05:34:38.082Z,16.99
2017-07-01T05:35:18.985Z,17.01
2017-07-01T05:35:59.961Z,16.94
2017-07-01T05:36:40.838Z,16.93
2017-07-01T05:37:23.401Z,17.02
2017-07-01T05:38:04.295Z,16.94
2017-07-01T05:38:47.768Z,17.05
2017-07-01T05:39:28.655Z,17.06
2017-07-01T05:40:09.537Z,17.06
2017-07-01T05:40:50.427Z,16.91
2017-07-01T05:41:33.908Z,16.83
2017-07-01T05:42:20.277Z,16.83
2017-07-01T05:43:07.627Z,16.78
2017-07-01T05:43:51.925Z,16.84
2017-07-01T05:44:34.640Z,16.78
2017-07-01T05:45:19.914Z,16.72
2017-07-01T05:46:02.913Z,16.76
2017-07-01T05:46:45.637Z,16.86
2017-07-01T05:47:29.935Z,16.81
2017-07-01T05:48:10.834Z,16.97
2017-07-01T05:48:53.455Z,16.93
2017-07-01T05:49:34.340Z,17.04
2017-07-01T05:50:17.133Z,16.76
2017-07-01T05:50:59.911Z,16.81
2017-07-01T05:51:46.402Z,16.72
2017-07-01T05:53:16.439Z,16.78
2017-07-01T05:53:57.318Z,16.86
2017-07-01T05:54:38.181Z,16.86
2017-07-01T05:55:19.071Z,16.91
2017-07-01T05:56:00.015Z,16.86
2017-07-01T05:56:41.010Z,16.71
2017-07-01T05:57:21.898Z,16.75
2017-07-01T05:58:07.255Z,16.87
2017-07-01T05:58:52.558Z,16.9
2017-07-01T05:59:34.981Z,16.84
2017-07-01T06:00:15.877Z,16.89
2017-07-01T06:00:58.462Z,16.93
2017-07-01T06:01:40.986Z,16.94
2017-07-01T06:02:26.255Z,16.93
2017-07-01T06:03:08.756Z,16.97
2017-07-01T06:03:51.244Z,16.93
2017-07-01T06:04:35.474Z,16.93
2017-07-01T06:05:17.961Z,16.96
2017-07-01T06:06:00.757Z,16.89
2017-07-01T06:06:41.647Z,16.9
2017-07-01T06:08:14.970Z,17.01
2017-07-01T06:08:55.824Z,16.78
2017-07-01T06:09:36.763Z,16.87
2017-07-01T06:10:17.647Z,17.04
2017-07-01T06:10:58.546Z,17.09
2017-07-01T06:11:39.432Z,17.04
2017-07-01T06:12:20.322Z,17.08
2017-07-01T06:13:01.221Z,17.02
2017-07-01T06:13:42.104Z,16.86
2017-07-01T06:14:22.985Z,17.05
2017-07-01T06:15:03.889Z,16.99
2017-07-01T06:15:44.777Z,16.91
2017-07-01T06:16:25.657Z,16.93
2017-07-01T06:17:06.548Z,17.02
2017-07-01T06:17:47.443Z,17.06
2017-07-01T06:18:28.357Z,17.06
2017-07-01T06:19:09.250Z,17.08
2017-07-01T06:19:50.135Z,17.06
2017-07-01T06:20:31.013Z,17.06
2017-07-01T06:21:11.899Z,17.05
2017-07-01T06:21:52.790Z,17.06
2017-07-01T06:22:33.675Z,17.05
2017-07-01T06:23:14.550Z,17.08
2017-07-01T06:23:55.425Z,17.11
2017-07-01T06:24:36.318Z,17.12
2017-07-01T06:25:17.215Z,17.06
2017-07-01T06:25:58.141Z,16.84
2017-07-01T06:26:38.995Z,17.02
2017-07-01T06:27:19.872Z,16.84
2017-07-01T06:28:00.743Z,17.02
2017-07-01T06:28:41.650Z,17.14
2017-07-01T06:29:22.550Z,17.09
2017-07-01T06:30:03.589Z,17.14
2017-07-01T06:30:44.481Z,17.22
2017-07-01T06:31:25.383Z,17.11
2017-07-01T06:32:06.272Z,17.09
2017-07-01T06:32:47.156Z,17.09
2017-07-01T06:33:28.037Z,16.87
2017-07-01T06:34:08.931Z,17.01
2017-07-01T06:34:49.838Z,17.06
2017-07-01T06:35:30.732Z,17.2
2017-07-01T06:36:11.624Z,17.16
2017-07-01T06:36:52.511Z,17.3
2017-07-01T06:37:33.390Z,17.41
2017-07-01T06:38:14.287Z,17.45
2017-07-01T06:38:55.218Z,17.22
2017-07-01T06:39:36.222Z,17.2
2017-07-01T06:40:17.130Z,17.3
2017-07-01T06:40:58.047Z,17.41
2017-07-01T06:41:38.936Z,17.63
2017-07-01T06:42:19.829Z,17.64
2017-07-01T06:43:00.696Z,17.56
2017-07-01T06:43:41.575Z,17.54
2017-07-01T06:44:22.491Z,17.67
2017-07-01T06:45:03.390Z,17.82
2017-07-01T06:45:44.302Z,17.8
2017-07-01T06:46:25.219Z,17.83
2017-07-01T06:47:06.120Z,17.92
2017-07-01T06:47:47.004Z,17.87
2017-07-01T06:48:27.905Z,17.87
2017-07-01T06:49:08.788Z,18.08
2017-07-01T06:49:49.672Z,18.03
2017-07-01T06:50:30.560Z,17.89
2017-07-01T06:51:11.441Z,17.82
2017-07-01T06:51:52.330Z,17.95
2017-07-01T06:54:06.120Z,18.04
2017-07-01T06:54:47.012Z,18.11
2017-07-01T06:55:27.891Z,18.04
2017-07-01T06:56:08.788Z,18.33
2017-07-01T06:56:49.674Z,18.37
2017-07-01T06:57:30.554Z,18.23
2017-07-01T06:58:11.460Z,18.11
2017-07-01T06:58:52.326Z,17.92
2017-07-01T06:59:33.210Z,18
2017-07-01T07:00:14.104Z,18.11
2017-07-01T07:00:54.994Z,18.34
2017-07-01T07:01:35.882Z,18.45
2017-07-01T07:02:16.776Z,18.49
2017-07-01T07:02:57.670Z,18.25
2017-07-01T07:03:38.563Z,18.41
2017-07-01T07:04:19.457Z,18.33
2017-07-01T07:05:00.350Z,18.4
2017-07-01T07:05:41.245Z,18.47
2017-07-01T07:06:22.119Z,18.33
2017-07-01T07:07:03.031Z,18.37
2017-07-01T07:07:43.919Z,18.22
2017-07-01T07:08:24.805Z,18.23
2017-07-01T07:09:05.700Z,18.34
2017-07-01T07:09:46.590Z,18.03
2017-07-01T07:10:27.483Z,18.18
2017-07-01T07:11:08.378Z,18.33
2017-07-01T07:11:49.261Z,18.26
2017-07-01T07:12:30.158Z,18.2
2017-07-01T07:13:11.053Z,18.23
2017-07-01T07:13:51.942Z,18.18
2017-07-01T07:14:32.853Z,18.44
2017-07-01T07:15:13.750Z,18.74
2017-07-01T07:15:54.646Z,18.92
2017-07-01T07:16:35.542Z,19.15
2017-07-01T07:17:16.437Z,19.21
2017-07-01T07:17:57.333Z,19.29
2017-07-01T07:18:38.230Z,19.34
2017-07-01T07:19:19.134Z,19.33
2017-07-01T07:20:00.021Z,18.7
2017-07-01T07:20:40.920Z,18.86
2017-07-01T07:21:21.808Z,19.07
2017-07-01T07:22:02.690Z,19.08
2017-07-01T07:22:43.585Z,18.98
2017-07-01T07:23:24.480Z,18.71
2017-07-01T07:24:05.369Z,18.84
2017-07-01T07:24:46.256Z,18.74
2017-07-01T07:25:27.160Z,18.56
2017-07-01T07:26:08.067Z,18.59
2017-07-01T07:26:48.971Z,18.37
2017-07-01T07:27:29.855Z,18.34
2017-07-01T07:28:10.747Z,18.38
2017-07-01T07:28:51.639Z,18.23
2017-07-01T07:29:32.531Z,18.22
2017-07-01T07:30:13.418Z,18.38
2017-07-01T07:30:54.311Z,18.55
2017-07-01T07:31:35.202Z,18.43
2017-07-01T07:32:16.096Z,18.55
2017-07-01T07:32:57.002Z,18.59
2017-07-01T07:33:37.903Z,18.6
2017-07-01T07:34:18.809Z,18.65
2017-07-01T07:34:59.708Z,18.8
2017-07-01T07:35:40.637Z,18.95
2017-07-01T07:36:21.541Z,18.71
2017-07-01T07:37:02.426Z,18.81
2017-07-01T07:37:43.315Z,19.12
2017-07-01T07:38:24.228Z,19.29
2017-07-01T07:39:05.105Z,19.24
2017-07-01T07:39:45.988Z,19.48
2017-07-01T07:40:26.907Z,19.58
2017-07-01T07:41:07.829Z,19.58
2017-07-01T07:41:48.716Z,19.96
2017-07-01T07:42:29.604Z,19.94
2017-07-01T07:43:10.506Z,20.18
2017-07-01T07:43:51.389Z,20.16
2017-07-01T07:44:32.365Z,20.24
2017-07-01T07:45:13.259Z,20.41
2017-07-01T07:45:54.150Z,20.28
2017-07-01T07:46:35.036Z,20.52
2017-07-01T07:47:15.930Z,20.82
2017-07-01T07:47:56.823Z,21.21
2017-07-01T07:48:37.712Z,21.39
2017-07-01T07:49:18.613Z,21.62
2017-07-01T07:49:59.865Z,21.55
2017-07-01T07:50:40.463Z,21.61
2017-07-01T07:51:21.369Z,21.95
2017-07-01T07:52:02.271Z,22.11
2017-07-01T07:52:43.164Z,22.23
2017-07-01T07:53:24.124Z,22.36
2017-07-01T07:54:05.011Z,21.72
2017-07-01T07:54:45.917Z,22.1
2017-07-01T07:55:26.830Z,21.98
2017-07-01T07:56:07.735Z,21.88
2017-07-01T07:56:48.641Z,21.51
2017-07-01T07:57:29.543Z,21.55
2017-07-01T07:58:10.435Z,21.62
2017-07-01T07:58:51.329Z,21.85
2017-07-01T07:59:32.237Z,21.67
2017-07-01T08:00:13.141Z,22
2017-07-01T08:00:54.027Z,22.15
2017-07-01T08:01:34.926Z,22.33
2017-07-01T08:02:15.831Z,22.45
2017-07-01T08:02:56.732Z,22.23
2017-07-01T08:03:37.635Z,22.51
2017-07-01T08:04:18.527Z,22.3
2017-07-01T08:04:59.420Z,21.61
2017-07-01T08:05:40.319Z,21.85
2017-07-01T08:06:21.200Z,21.76
2017-07-01T08:07:02.098Z,22.26
2017-07-01T08:07:42.986Z,22.51
2017-07-01T08:08:23.874Z,22.76
2017-07-01T08:09:04.776Z,23.05
2017-07-01T08:09:45.684Z,22.81
2017-07-01T08:10:26.581Z,22.65
2017-07-01T08:11:07.486Z,22.57
2017-07-01T08:11:48.399Z,22.25
2017-07-01T08:12:29.281Z,21.85
2017-07-01T08:13:10.189Z,22.45
2017-07-01T08:13:51.097Z,22.84
2017-07-01T08:14:32.037Z,22.26
2017-07-01T08:15:12.946Z,22.57
2017-07-01T08:15:53.853Z,22.29
2017-07-01T08:16:34.758Z,22.8
2017-07-01T08:17:15.650Z,22.85
2017-07-01T08:17:56.550Z,22.88
2017-07-01T08:18:37.454Z,22.99
2017-07-01T08:19:18.357Z,22.73
2017-07-01T08:19:59.261Z,21.32
2017-07-01T08:20:40.165Z,20.99
2017-07-01T08:21:21.051Z,20.6
2017-07-01T08:22:01.950Z,20.95
2017-07-01T08:22:42.843Z,21.21
2017-07-01T08:23:23.745Z,21.18
2017-07-01T08:24:04.644Z,21.69
2017-07-01T08:24:45.544Z,21.69
2017-07-01T08:25:26.447Z,21.75
2017-07-01T08:26:07.343Z,22.06
2017-07-01T08:26:48.252Z,22.26
2017-07-01T08:27:29.156Z,22.3
2017-07-01T08:28:10.046Z,22.36
2017-07-01T08:28:50.954Z,22.29
2017-07-01T08:29:31.856Z,22.33
2017-07-01T08:30:12.761Z,22.3
2017-07-01T08:30:53.737Z,22.39
2017-07-01T08:31:34.630Z,22.5
2017-07-01T08:32:15.520Z,22.1
2017-07-01T08:32:56.428Z,22.51
2017-07-01T08:33:37.322Z,21.88
2017-07-01T08:34:18.224Z,22.2
2017-07-01T08:34:59.125Z,21.91
2017-07-01T08:35:40.026Z,22.33
2017-07-01T08:36:20.921Z,22.38
2017-07-01T08:37:01.802Z,22.55
2017-07-01T08:37:42.691Z,22.47
2017-07-01T08:38:23.599Z,22.65
2017-07-01T08:39:04.499Z,22.73
2017-07-01T08:39:45.517Z,22.17
2017-07-01T08:40:26.391Z,21.83
2017-07-01T08:41:07.291Z,22.28
2017-07-01T08:41:48.196Z,22.62
2017-07-01T08:42:29.089Z,22.29
2017-07-01T08:43:09.991Z,22.41
2017-07-01T08:43:50.890Z,22.28
2017-07-01T08:44:31.785Z,21.61
2017-07-01T08:45:12.689Z,22.26
2017-07-01T08:45:53.595Z,22.55
2017-07-01T08:46:34.498Z,21.7
2017-07-01T08:47:15.390Z,22.08
2017-07-01T08:47:56.318Z,22.25
2017-07-01T08:48:37.207Z,22.14
2017-07-01T08:49:18.125Z,22.28
2017-07-01T08:49:59.019Z,22.25
2017-07-01T08:50:39.923Z,22.32
2017-07-01T08:51:20.823Z,22.2
2017-07-01T08:52:01.709Z,22.2
2017-07-01T08:52:42.603Z,22.13
2017-07-01T08:53:23.509Z,22.14
2017-07-01T08:54:04.407Z,22.29
2017-07-01T08:54:45.310Z,22.5
2017-07-01T08:57:00.083Z,22.26
2017-07-01T08:57:40.979Z,21.62
2017-07-01T08:58:21.885Z,21.67